Kezdőlap
METAR-TAF:

METAR-TAF

Repülőterek :

Samsun, Törökország

földrajzi szélesség: 41-15-15N, földrajzi hosszúság: 036-34-03E, magasság: 5 m

Jelenlegi meteorológiai megfigyelések

A jelentés 23 perccel ezelõtt készült, 06:50 UTC
Dél-délkeleti szél 3 kt, kelet-délkeleti és déli között változik
Hőmérséklet 9°C
Páratartalom 61%
Légköri nyomás 1020 hPa
Látótávolság 10 km, vagy több
Szórványos felhőzet 3600 lábon
Szakadozott felhőzet 10000 lábon

METAR: LTFH 220650Z 15003KT 110V190 9999 SCT036 BKN100 09/02 Q1020 NOSIG

Idő: 10:13 (07:13 UTC)

Előrejelzés

A jelentés 2 órával és 33 perccel ezelõtt készült, 04:40 UTC
Az előrejelzés 22-én 06 óra UTC és 22-én 15 óra UTC között érvényes
Kelet-délkeleti szél 8 kt
Látótávolság 10 km, vagy több
Szórványos felhőzet 3600 lábon
Szakadozott felhőzet 10000 lábon

TAF: LTFH 220440Z 2206/2215 12008KT 9999 SCT036 BKN100

Meteorológiai megfigyelések és előrejelzések több, mint 4000 repülőtéren (METAR és TAF jelentéseket).

A térképen piros és sárga pontok jelzik az elérhető meteorológiai állomásokat.

Mozgassa az egeret a pont fölött, hogy megjelenjen az állomás neve.

Azután kattintson az időjárási megfigyelések és előrejelzések megtekintéséhez.

A térkép megváltoztatása: kattintson a fekete keresztel jelölt zöld gombra ráközelítéshez, a vonallal jelölt zöld gombra távolításhoz, vagy a zöld nyilakra a szomszédos térképek eléréséhez.


METAR-TAF: